Time;durP1;ratioP1;P1;durP2;ratioP2;P2;SDS_P1;SDS_P2;PMS_P1;PMS_P2;Temp;Humidity;BMP_temperature;BMP_pressure;BME280_temperature;BME280_humidity;BME280_pressure;Samples;Min_cycle;Max_cycle;Signal;HPM_P1;HPM_P2
2023/08/11 00:02:13;;;;;;;4.23;2.43;;;14.50;99.90;;;;;;5079683;28;20421;-63
2023/08/11 00:04:39;;;;;;;4.57;2.13;;;14.50;99.90;;;;;;5077445;28;20789;-63
2023/08/11 00:07:05;;;;;;;10.40;2.50;;;14.40;99.90;;;;;;5074890;28;20184;-63
2023/08/11 00:09:31;;;;;;;4.50;2.00;;;14.40;99.90;;;;;;5079544;28;20502;-63
2023/08/11 00:11:56;;;;;;;7.57;1.97;;;14.50;99.90;;;;;;5077648;28;20462;-63
2023/08/11 00:14:22;;;;;;;2.23;1.60;;;14.40;99.90;;;;;;5071064;28;20177;-63
2023/08/11 00:16:47;;;;;;;4.13;2.30;;;14.40;99.90;;;;;;5086998;28;20177;-63
2023/08/11 00:19:13;;;;;;;3.70;1.97;;;14.40;99.90;;;;;;5092044;28;20338;-63
2023/08/11 00:21:39;;;;;;;4.50;1.67;;;14.40;99.90;;;;;;5072100;28;20229;-64
2023/08/11 00:24:04;;;;;;;5.70;2.67;;;14.40;99.90;;;;;;5071295;28;20579;-63
2023/08/11 00:26:30;;;;;;;18.40;1.67;;;14.40;99.90;;;;;;5071367;28;20212;-63
2023/08/11 00:28:56;;;;;;;10.80;2.67;;;14.40;99.90;;;;;;5083871;28;20634;-63
2023/08/11 00:31:22;;;;;;;5.83;2.13;;;14.40;99.90;;;;;;5071686;28;20666;-63
2023/08/11 00:33:51;;;;;;;5.00;2.07;;;14.30;99.90;;;;;;5079432;28;20491;-64
2023/08/11 00:36:17;;;;;;;5.93;2.07;;;14.30;99.90;;;;;;5080995;28;20613;-63
2023/08/11 00:38:43;;;;;;;4.63;2.10;;;14.30;99.90;;;;;;5077741;28;20526;-63
2023/08/11 00:41:10;;;;;;;5.17;2.33;;;14.30;99.90;;;;;;5076725;28;20514;-63
2023/08/11 00:43:36;;;;;;;3.27;1.73;;;14.30;99.90;;;;;;5083402;28;20705;-63
2023/08/11 00:46:12;;;;;;;9.40;2.63;;;14.20;99.90;;;;;;5080033;28;20506;-63
2023/08/11 00:48:38;;;;;;;4.40;2.03;;;14.20;99.90;;;;;;5070847;28;20191;-63
2023/08/11 00:51:05;;;;;;;5.97;2.80;;;14.10;99.90;;;;;;5079433;28;20462;-63
2023/08/11 00:53:33;;;;;;;5.33;2.13;;;14.20;99.90;;;;;;5090812;28;20420;-63
2023/08/11 00:56:00;;;;;;;4.30;1.80;;;14.20;99.90;;;;;;5082835;28;20431;-64
2023/08/11 00:58:28;;;;;;;4.43;1.53;;;14.10;99.90;;;;;;5072185;28;20430;-63
2023/08/11 01:00:53;;;;;;;4.90;2.10;;;14.00;99.90;;;;;;5090578;28;20453;-63
2023/08/11 01:03:19;;;;;;;7.17;2.03;;;13.90;99.90;;;;;;5072636;28;20443;-63
2023/08/11 01:05:51;;;;;;;2.27;1.50;;;13.90;99.90;;;;;;5071371;28;20200;-63
2023/08/11 01:08:35;;;;;;;6.03;2.30;;;13.90;99.90;;;;;;5078799;28;20242;-64
2023/08/11 01:11:06;;;;;;;3.43;2.10;;;13.90;99.90;;;;;;5082019;28;20463;-63
2023/08/11 01:13:36;;;;;;;9.50;3.60;;;13.90;99.90;;;;;;5069782;28;20960;-64
2023/08/11 01:16:04;;;;;;;4.57;1.80;;;13.90;99.90;;;;;;5081569;28;20422;-64
2023/08/11 01:18:30;;;;;;;4.00;1.80;;;13.90;99.90;;;;;;5070055;28;20427;-63
2023/08/11 01:21:03;;;;;;;2.53;1.40;;;13.80;99.90;;;;;;5070791;28;20427;-63
2023/08/11 01:23:29;;;;;;;2.50;1.67;;;13.80;99.90;;;;;;5070231;28;20475;-63
2023/08/11 01:25:56;;;;;;;6.40;2.00;;;13.80;99.90;;;;;;5084423;28;20497;-63
2023/08/11 01:28:21;;;;;;;5.57;1.57;;;13.80;99.90;;;;;;5077727;28;20514;-63
2023/08/11 01:30:50;;;;;;;3.70;1.83;;;13.80;99.90;;;;;;5076405;28;20465;-63
2023/08/11 01:33:16;;;;;;;2.40;1.50;;;13.80;99.90;;;;;;5078191;28;20184;-63
2023/08/11 01:35:41;;;;;;;3.50;1.73;;;13.70;99.90;;;;;;5085695;28;20989;-63
2023/08/11 01:38:10;;;;;;;5.73;1.40;;;13.70;99.90;;;;;;5082777;28;20177;-63
2023/08/11 01:40:36;;;;;;;3.90;2.07;;;13.70;99.90;;;;;;5070639;28;20193;-63
2023/08/11 01:43:05;;;;;;;3.33;1.80;;;13.70;99.90;;;;;;5078427;28;20414;-63
2023/08/11 01:45:31;;;;;;;2.00;1.27;;;13.60;99.90;;;;;;5074387;28;20421;-63
2023/08/11 01:47:59;;;;;;;2.97;1.73;;;13.60;99.90;;;;;;5070576;28;20419;-63
2023/08/11 01:50:27;;;;;;;3.23;1.63;;;13.60;99.90;;;;;;5070397;28;21513;-63
2023/08/11 01:52:54;;;;;;;3.37;1.60;;;13.40;99.90;;;;;;5080437;28;20564;-63
2023/08/11 01:55:21;;;;;;;3.07;1.60;;;13.50;99.90;;;;;;5089892;28;20441;-63
2023/08/11 01:57:47;;;;;;;5.27;1.80;;;13.50;99.90;;;;;;5075948;28;20411;-63
2023/08/11 02:00:13;;;;;;;4.43;2.17;;;13.50;99.90;;;;;;5073499;28;20418;-63
2023/08/11 02:02:43;;;;;;;4.63;2.10;;;13.50;99.90;;;;;;5078535;28;20443;-63
2023/08/11 02:05:15;;;;;;;4.07;1.80;;;13.50;99.90;;;;;;5087219;28;20922;-63
2023/08/11 02:07:42;;;;;;;3.47;1.53;;;13.50;99.90;;;;;;5087003;28;20419;-63
2023/08/11 02:10:08;;;;;;;11.23;2.00;;;13.50;99.90;;;;;;5081296;28;20419;-63
2023/08/11 02:12:38;;;;;;;4.13;2.00;;;13.40;99.90;;;;;;5074038;28;20862;-63
2023/08/11 02:15:07;;;;;;;3.23;1.70;;;13.40;99.90;;;;;;5078529;28;20411;-63
2023/08/11 02:17:34;;;;;;;2.40;1.33;;;13.50;99.90;;;;;;5074891;28;20423;-63
2023/08/11 02:20:00;;;;;;;3.33;1.80;;;13.50;99.90;;;;;;5070446;28;20414;-63
2023/08/11 02:22:26;;;;;;;3.20;1.53;;;13.40;99.90;;;;;;5070337;28;20473;-63
2023/08/11 02:24:52;;;;;;;4.43;1.80;;;13.40;99.90;;;;;;5070119;28;20905;-63
2023/08/11 02:27:17;;;;;;;5.70;2.20;;;13.50;99.90;;;;;;5069642;28;20444;-63
2023/08/11 02:29:44;;;;;;;2.60;1.77;;;13.50;99.90;;;;;;5091505;28;20184;-63
2023/08/11 02:32:11;;;;;;;4.73;2.10;;;13.50;99.90;;;;;;5080296;28;20204;-63
2023/08/11 02:34:37;;;;;;;2.00;1.37;;;13.40;99.90;;;;;;5077494;28;20419;-63
2023/08/11 02:37:03;;;;;;;3.30;1.50;;;13.40;99.90;;;;;;5073529;28;20406;-63
2023/08/11 02:39:28;;;;;;;4.50;1.93;;;13.30;99.90;;;;;;5080885;28;20205;-63
2023/08/11 02:41:55;;;;;;;3.07;1.53;;;13.30;99.90;;;;;;5079651;28;20584;-63
2023/08/11 02:44:20;;;;;;;2.60;1.30;;;13.30;99.90;;;;;;5079916;28;20203;-63
2023/08/11 02:46:46;;;;;;;4.30;1.90;;;13.20;99.90;;;;;;5093570;28;20418;-63
2023/08/11 02:49:12;;;;;;;4.17;2.23;;;13.20;99.90;;;;;;5093864;28;20180;-63
2023/08/11 02:51:37;;;;;;;3.00;1.70;;;13.20;99.90;;;;;;5079891;28;20212;-63
2023/08/11 02:54:04;;;;;;;8.50;2.10;;;13.10;99.90;;;;;;5086564;28;20177;-63
2023/08/11 02:56:29;;;;;;;4.53;1.90;;;13.20;99.90;;;;;;5082969;28;20203;-63
2023/08/11 02:58:56;;;;;;;3.43;1.60;;;13.10;99.90;;;;;;5072333;28;20411;-63
2023/08/11 03:01:23;;;;;;;2.33;1.37;;;13.10;99.90;;;;;;5073384;28;20619;-63
2023/08/11 03:03:49;;;;;;;3.30;1.80;;;13.10;99.90;;;;;;5084928;28;20427;-63
2023/08/11 03:06:14;;;;;;;3.97;1.80;;;13.20;99.90;;;;;;5085250;28;20434;-63
2023/08/11 03:08:40;;;;;;;4.33;1.50;;;13.20;99.90;;;;;;5082318;28;20205;-63
2023/08/11 03:11:06;;;;;;;3.80;1.80;;;13.20;99.90;;;;;;5086890;28;20204;-63
2023/08/11 03:13:32;;;;;;;4.23;1.70;;;13.10;99.90;;;;;;5072257;28;20259;-63
2023/08/11 03:15:58;;;;;;;6.57;1.90;;;13.10;99.90;;;;;;5065113;28;20799;-63
2023/08/11 03:18:24;;;;;;;3.37;1.57;;;13.00;99.90;;;;;;5102537;28;20789;-63
2023/08/11 03:20:52;;;;;;;2.57;1.23;;;13.00;99.90;;;;;;5097244;28;20476;-63
2023/08/11 03:23:18;;;;;;;5.70;1.83;;;13.10;99.90;;;;;;5096191;28;20176;-63
2023/08/11 03:25:44;;;;;;;4.80;2.20;;;13.00;99.90;;;;;;5100154;28;20407;-63
2023/08/11 03:28:09;;;;;;;2.97;1.80;;;13.00;99.90;;;;;;5074755;28;20178;-63
2023/08/11 03:30:35;;;;;;;3.73;1.93;;;13.00;99.90;;;;;;5072930;28;20627;-64
2023/08/11 03:33:01;;;;;;;3.67;1.80;;;12.90;99.90;;;;;;5077239;28;20674;-63
2023/08/11 03:35:26;;;;;;;2.60;1.77;;;12.90;99.90;;;;;;5090339;28;20180;-63
2023/08/11 03:37:52;;;;;;;3.80;1.90;;;12.90;99.90;;;;;;5072557;28;20185;-63
2023/08/11 03:40:19;;;;;;;3.03;1.90;;;12.90;99.90;;;;;;5072770;28;20180;-63
2023/08/11 03:42:44;;;;;;;7.40;2.00;;;12.80;99.90;;;;;;5077560;28;20192;-63
2023/08/11 03:45:12;;;;;;;3.87;2.00;;;12.70;99.90;;;;;;5079561;28;20422;-64
2023/08/11 03:47:39;;;;;;;2.33;1.33;;;12.70;99.90;;;;;;5085258;28;20200;-64
2023/08/11 03:50:06;;;;;;;3.40;1.40;;;12.70;99.90;;;;;;5072130;28;20430;-64
2023/08/11 03:52:32;;;;;;;2.37;1.50;;;12.70;99.90;;;;;;5072287;28;20961;-64
2023/08/11 03:54:58;;;;;;;5.67;1.63;;;12.60;99.90;;;;;;5072008;28;20437;-64
2023/08/11 03:57:23;;;;;;;4.00;1.90;;;12.60;99.90;;;;;;5087582;28;20415;-64
2023/08/11 03:59:49;;;;;;;5.93;2.47;;;12.60;99.90;;;;;;5079346;28;20185;-64
2023/08/11 04:02:15;;;;;;;4.60;1.93;;;12.60;99.90;;;;;;5084611;28;20589;-64
2023/08/11 04:04:41;;;;;;;3.17;1.60;;;12.60;99.90;;;;;;5092273;28;20180;-64
2023/08/11 04:07:07;;;;;;;2.77;1.60;;;12.60;99.90;;;;;;5092994;28;20450;-64
2023/08/11 04:09:34;;;;;;;3.53;1.87;;;12.70;99.90;;;;;;5090635;28;20184;-64
2023/08/11 04:11:59;;;;;;;4.33;1.63;;;12.80;99.90;;;;;;5077668;28;20566;-64
2023/08/11 04:14:25;;;;;;;4.00;1.60;;;12.70;99.90;;;;;;5089210;28;20467;-64
2023/08/11 04:16:51;;;;;;;8.07;2.27;;;12.80;99.90;;;;;;5093021;28;20177;-64
2023/08/11 04:19:16;;;;;;;4.03;1.87;;;12.80;99.90;;;;;;5083835;28;20661;-64
2023/08/11 04:21:42;;;;;;;2.60;1.80;;;12.70;99.90;;;;;;5090565;28;20212;-64
2023/08/11 04:24:08;;;;;;;3.37;1.90;;;12.70;99.90;;;;;;5074672;28;20185;-64
2023/08/11 04:26:33;;;;;;;9.40;2.37;;;12.70;99.90;;;;;;5069736;28;20196;-64
2023/08/11 04:29:03;;;;;;;4.00;2.07;;;12.70;99.90;;;;;;5082927;28;20418;-64
2023/08/11 04:31:30;;;;;;;2.63;1.70;;;12.80;99.90;;;;;;5076540;28;20833;-64
2023/08/11 04:33:56;;;;;;;2.67;1.20;;;12.80;99.90;;;;;;5079113;28;20411;-64
2023/08/11 04:36:22;;;;;;;4.40;1.63;;;12.80;99.90;;;;;;5079010;28;20571;-64
2023/08/11 04:38:48;;;;;;;5.60;2.00;;;12.70;99.90;;;;;;5090870;28;20180;-64
2023/08/11 04:41:13;;;;;;;5.00;1.77;;;12.80;99.90;;;;;;5079227;28;20791;-64
2023/08/11 04:43:39;;;;;;;3.70;1.40;;;12.80;99.90;;;;;;5076784;28;20280;-64
2023/08/11 04:46:05;;;;;;;3.20;1.87;;;12.80;99.90;;;;;;5084466;28;20645;-64
2023/08/11 04:48:31;;;;;;;5.00;1.50;;;12.80;99.90;;;;;;5071840;28;20181;-64
2023/08/11 04:50:56;;;;;;;6.70;1.63;;;12.90;99.90;;;;;;5084486;28;20458;-64
2023/08/11 04:53:22;;;;;;;3.40;1.70;;;12.90;99.90;;;;;;5069852;28;20235;-64
2023/08/11 04:55:48;;;;;;;5.87;1.70;;;12.90;99.90;;;;;;5077703;28;20275;-64
2023/08/11 04:58:14;;;;;;;3.00;1.47;;;13.00;99.90;;;;;;5073007;28;20287;-64
2023/08/11 05:00:40;;;;;;;3.77;2.10;;;13.10;99.90;;;;;;5070805;28;20422;-64
2023/08/11 05:03:05;;;;;;;3.87;1.40;;;13.10;99.90;;;;;;5070674;28;20412;-64
2023/08/11 05:05:31;;;;;;;4.60;2.00;;;13.20;99.90;;;;;;5084285;28;20260;-64
2023/08/11 05:07:57;;;;;;;7.87;2.10;;;13.20;99.90;;;;;;5071145;28;20177;-64
2023/08/11 05:10:22;;;;;;;3.80;1.93;;;13.20;99.90;;;;;;5079166;28;20238;-64
2023/08/11 05:12:48;;;;;;;4.67;2.00;;;13.30;99.90;;;;;;5074450;28;20212;-64
2023/08/11 05:15:15;;;;;;;3.83;2.00;;;13.30;99.90;;;;;;5078707;28;20712;-64
2023/08/11 05:17:40;;;;;;;6.27;2.90;;;13.30;99.90;;;;;;5073541;28;20415;-64
2023/08/11 05:20:07;;;;;;;3.10;1.67;;;13.30;99.90;;;;;;5070794;28;20495;-63
2023/08/11 05:22:34;;;;;;;3.30;2.27;;;13.40;99.90;;;;;;5070642;28;20248;-63
2023/08/11 05:25:01;;;;;;;4.13;2.33;;;13.50;99.90;;;;;;5070407;28;20464;-63
2023/08/11 05:27:27;;;;;;;7.80;2.50;;;13.60;99.90;;;;;;5069851;28;20526;-63
2023/08/11 05:29:53;;;;;;;5.07;2.63;;;13.70;99.90;;;;;;5070716;28;20880;-63
2023/08/11 05:32:18;;;;;;;4.30;2.20;;;13.80;99.90;;;;;;5075666;28;20292;-64
2023/08/11 05:34:45;;;;;;;16.13;2.80;;;13.90;99.90;;;;;;5082367;28;20213;-63
2023/08/11 05:37:10;;;;;;;5.53;2.00;;;14.00;99.90;;;;;;5077346;28;20188;-64
2023/08/11 05:39:38;;;;;;;3.50;2.10;;;14.00;99.90;;;;;;5083585;28;20423;-63
2023/08/11 05:42:05;;;;;;;5.03;2.80;;;14.10;99.90;;;;;;5070183;28;20208;-63
2023/08/11 05:44:31;;;;;;;6.07;2.70;;;14.30;99.90;;;;;;5069683;28;20427;-63
2023/08/11 05:46:57;;;;;;;2.67;1.87;;;14.40;99.90;;;;;;5085122;28;20422;-63
2023/08/11 05:49:22;;;;;;;5.37;2.70;;;14.50;99.90;;;;;;5082621;28;20578;-64
2023/08/11 05:51:48;;;;;;;4.53;2.37;;;14.60;99.90;;;;;;5070339;28;20283;-63
2023/08/11 05:54:13;;;;;;;4.27;2.27;;;14.70;99.90;;;;;;5070090;28;20632;-63
2023/08/11 05:56:39;;;;;;;5.57;2.23;;;14.70;99.90;;;;;;5071381;28;20193;-63
2023/08/11 05:59:04;;;;;;;7.17;2.20;;;14.80;99.90;;;;;;5082088;28;20181;-63
2023/08/11 06:01:30;;;;;;;7.30;1.87;;;14.90;99.90;;;;;;5071263;28;20177;-63
2023/08/11 06:03:56;;;;;;;5.07;2.53;;;15.00;99.90;;;;;;5082355;28;20184;-63
2023/08/11 06:06:21;;;;;;;6.10;2.33;;;15.10;99.90;;;;;;5076706;28;20192;-64
2023/08/11 06:08:47;;;;;;;4.60;1.90;;;15.20;99.90;;;;;;5074156;28;20185;-64
2023/08/11 06:11:13;;;;;;;5.13;2.73;;;15.30;99.90;;;;;;5076682;28;20284;-64
2023/08/11 06:13:38;;;;;;;7.03;2.40;;;15.40;99.90;;;;;;5076960;28;20634;-63
2023/08/11 06:16:04;;;;;;;5.00;2.57;;;15.50;99.90;;;;;;5085290;28;20180;-63
2023/08/11 06:18:29;;;;;;;5.80;2.90;;;15.60;99.90;;;;;;5086942;28;20173;-63
2023/08/11 06:20:55;;;;;;;7.97;2.30;;;15.70;99.90;;;;;;5087624;28;20603;-64
2023/08/11 06:23:21;;;;;;;6.63;2.40;;;15.80;99.90;;;;;;5073844;28;20209;-64
2023/08/11 06:25:46;;;;;;;4.67;3.27;;;15.90;99.90;;;;;;5074344;28;20209;-63
2023/08/11 06:28:12;;;;;;;4.47;1.90;;;16.20;99.90;;;;;;5080348;28;20206;-64
2023/08/11 06:30:38;;;;;;;6.17;2.20;;;16.50;99.90;;;;;;5080432;28;20275;-63
2023/08/11 06:33:04;;;;;;;4.30;2.30;;;16.60;99.90;;;;;;5085487;28;20208;-64
2023/08/11 06:35:30;;;;;;;6.67;3.10;;;16.80;99.90;;;;;;5074449;28;20419;-63
2023/08/11 06:37:56;;;;;;;6.30;2.17;;;17.00;99.90;;;;;;5079792;28;20185;-64
2023/08/11 06:40:21;;;;;;;2.63;1.50;;;17.10;99.90;;;;;;5082702;28;20196;-64
2023/08/11 06:42:47;;;;;;;4.33;1.97;;;17.20;99.90;;;;;;5084464;28;20714;-64
2023/08/11 06:45:13;;;;;;;4.53;2.10;;;17.30;99.90;;;;;;5084467;28;20676;-64
2023/08/11 06:47:38;;;;;;;4.30;2.30;;;17.40;99.90;;;;;;5081536;28;20184;-64
2023/08/11 06:50:04;;;;;;;4.40;2.20;;;17.50;99.90;;;;;;5087227;28;20261;-64
2023/08/11 06:52:30;;;;;;;3.43;1.60;;;17.90;99.90;;;;;;5079886;28;20212;-64
2023/08/11 06:54:55;;;;;;;4.90;2.00;;;18.00;99.90;;;;;;5084674;28;20494;-64
2023/08/11 06:57:22;;;;;;;3.20;1.73;;;18.20;99.90;;;;;;5082354;28;20211;-64
2023/08/11 06:59:48;;;;;;;3.30;1.93;;;18.50;99.90;;;;;;5080410;28;20187;-64
2023/08/11 07:02:14;;;;;;;2.67;1.57;;;18.70;99.90;;;;;;5079277;28;20414;-64
2023/08/11 07:04:40;;;;;;;3.23;1.63;;;18.80;99.90;;;;;;5093150;28;20214;-64
2023/08/11 07:07:06;;;;;;;5.80;2.20;;;19.20;99.90;;;;;;5089836;28;20564;-64
2023/08/11 07:09:33;;;;;;;4.37;2.37;;;19.40;99.90;;;;;;5085136;28;20169;-64
2023/08/11 07:11:59;;;;;;;5.93;2.20;;;19.80;99.90;;;;;;5086640;28;20463;-64
2023/08/11 07:14:24;;;;;;;4.60;1.80;;;20.10;99.90;;;;;;5078004;28;20468;-64
2023/08/11 07:16:50;;;;;;;4.13;1.97;;;20.40;99.90;;;;;;5080202;28;20230;-64
2023/08/11 07:19:18;;;;;;;4.97;2.30;;;20.70;99.90;;;;;;5073260;28;20245;-64
2023/08/11 07:21:43;;;;;;;4.40;1.80;;;21.00;99.90;;;;;;5085951;28;20212;-64
2023/08/11 07:24:10;;;;;;;3.77;2.10;;;21.30;99.90;;;;;;5072300;28;20454;-64
2023/08/11 07:26:35;;;;;;;2.33;1.33;;;21.80;99.90;;;;;;5072885;28;20432;-64
2023/08/11 07:29:01;;;;;;;3.80;1.73;;;22.10;99.90;;;;;;5085399;28;21070;-64
2023/08/11 07:31:27;;;;;;;5.83;2.40;;;22.70;98.10;;;;;;5072657;28;20223;-64
2023/08/11 07:33:52;;;;;;;4.30;1.90;;;22.70;98.70;;;;;;5081003;28;20288;-64
2023/08/11 07:36:18;;;;;;;4.70;1.80;;;23.00;98.20;;;;;;5072643;28;20822;-64
2023/08/11 07:38:44;;;;;;;4.53;1.90;;;23.40;97.20;;;;;;5072428;28;20173;-64
2023/08/11 07:41:09;;;;;;;9.97;2.00;;;24.20;96.00;;;;;;5072673;28;20265;-64
2023/08/11 07:43:35;;;;;;;3.30;1.73;;;25.20;95.10;;;;;;5071442;28;20542;-64
2023/08/11 07:46:00;;;;;;;3.30;1.77;;;25.50;93.40;;;;;;5079332;28;20192;-64
2023/08/11 07:48:26;;;;;;;3.35;2.15;;;27.00;92.00;;;;;;5078868;28;20271;-64
2023/08/11 07:50:52;;;;;;;5.00;2.10;;;27.50;90.80;;;;;;5092762;28;20180;-65
2023/08/11 07:53:17;;;;;;;3.63;2.03;;;28.40;86.20;;;;;;5078151;28;20757;-65
2023/08/11 07:55:43;;;;;;;3.45;2.03;;;28.10;87.00;;;;;;5086520;28;20192;-64
2023/08/11 07:58:08;;;;;;;3.30;1.65;;;28.10;86.90;;;;;;5085668;28;20180;-64
2023/08/11 08:00:34;;;;;;;4.50;2.15;;;29.00;85.90;;;;;;5073303;28;20203;-64
2023/08/11 08:03:00;;;;;;;3.38;1.85;;;29.40;81.50;;;;;;5086292;28;20180;-65
2023/08/11 08:05:25;;;;;;;4.65;1.88;;;29.70;81.20;;;;;;5072394;28;20315;-65
2023/08/11 08:07:51;;;;;;;2.60;1.52;;;29.20;83.20;;;;;;5080985;28;20184;-65
2023/08/11 08:10:17;;;;;;;3.58;1.40;;;29.60;80.40;;;;;;5080630;28;20177;-64
2023/08/11 08:12:45;;;;;;;6.65;1.98;;;29.90;78.40;;;;;;5075714;28;20306;-65
2023/08/11 08:15:12;;;;;;;6.65;1.60;;;30.30;80.00;;;;;;5081690;28;20179;-65
2023/08/11 08:17:39;;;;;;;3.10;1.27;;;30.20;79.10;;;;;;5075955;28;20623;-65
2023/08/11 08:20:09;;;;;;;3.58;2.10;;;30.30;76.20;;;;;;5092656;28;20176;-65
2023/08/11 08:22:35;;;;;;;4.03;1.45;;;30.00;77.60;;;;;;5078578;28;20184;-65
2023/08/11 08:25:01;;;;;;;3.78;2.10;;;30.40;77.00;;;;;;5084390;28;20188;-65
2023/08/11 08:27:26;;;;;;;3.28;2.00;;;30.20;76.50;;;;;;5071414;28;20180;-65
2023/08/11 08:29:53;;;;;;;4.38;1.70;;;30.40;75.70;;;;;;5085005;28;20245;-65
2023/08/11 08:32:22;;;;;;;4.07;2.15;;;30.80;74.50;;;;;;5072081;28;20250;-65
2023/08/11 08:34:48;;;;;;;3.13;1.65;;;30.70;76.20;;;;;;5078812;28;20256;-65
2023/08/11 08:37:20;;;;;;;4.13;2.10;;;30.70;74.30;;;;;;5071516;28;20643;-65
2023/08/11 08:39:48;;;;;;;4.72;2.72;;;31.00;76.20;;;;;;5080357;28;20180;-65
2023/08/11 08:42:15;;;;;;;5.57;2.00;;;31.30;72.80;;;;;;5088936;28;20997;-65
2023/08/11 08:44:42;;;;;;;2.92;2.08;;;31.60;71.20;;;;;;5080239;28;20270;-65
2023/08/11 08:47:08;;;;;;;3.67;1.80;;;32.70;69.70;;;;;;5078476;28;20678;-65
2023/08/11 08:49:37;;;;;;;3.38;1.70;;;31.90;70.60;;;;;;5092040;28;20273;-65
2023/08/11 08:52:07;;;;;;;3.70;1.92;;;31.70;70.70;;;;;;5088887;28;20212;-65
2023/08/11 08:54:34;;;;;;;2.55;1.50;;;31.80;70.70;;;;;;5081131;28;20675;-65
2023/08/11 08:57:01;;;;;;;2.95;1.60;;;31.50;70.80;;;;;;5077475;28;20214;-65
2023/08/11 08:59:28;;;;;;;3.55;2.10;;;30.80;70.30;;;;;;5081459;28;20259;-65
2023/08/11 09:01:54;;;;;;;2.85;1.80;;;31.00;72.00;;;;;;5082943;28;20180;-65
2023/08/11 09:04:20;;;;;;;2.97;2.00;;;31.40;72.50;;;;;;5081390;28;20241;-65
2023/08/11 09:06:47;;;;;;;3.20;1.90;;;31.60;71.40;;;;;;5075134;28;20181;-65
2023/08/11 09:09:12;;;;;;;2.95;1.80;;;31.90;69.00;;;;;;5082842;28;20230;-65
2023/08/11 09:11:39;;;;;;;3.25;2.10;;;32.00;70.50;;;;;;5086251;28;20622;-67
2023/08/11 09:14:06;;;;;;;2.85;1.67;;;32.30;69.80;;;;;;5082352;28;20182;-65
2023/08/11 09:16:35;;;;;;;3.63;1.80;;;32.70;67.90;;;;;;5078253;28;20224;-65
2023/08/11 09:19:03;;;;;;;3.42;1.88;;;32.40;69.60;;;;;;5082791;28;20263;-65
2023/08/11 09:21:30;;;;;;;4.82;2.10;;;32.40;68.10;;;;;;5072175;28;20625;-65
2023/08/11 09:23:56;;;;;;;3.10;2.10;;;32.70;67.00;;;;;;5070658;28;20180;-65
2023/08/11 09:26:23;;;;;;;4.60;2.08;;;32.60;66.90;;;;;;5087832;28;20729;-65
2023/08/11 09:28:50;;;;;;;8.20;2.50;;;32.00;66.50;;;;;;5082970;28;20450;-65
2023/08/11 09:31:19;;;;;;;3.63;1.92;;;31.40;68.50;;;;;;5077342;28;20196;-65
2023/08/11 09:33:45;;;;;;;3.72;1.75;;;30.80;69.10;;;;;;5079769;28;20180;-65
2023/08/11 09:36:11;;;;;;;4.45;2.33;;;30.80;67.80;;;;;;5084806;28;20597;-65
2023/08/11 09:38:37;;;;;;;3.15;1.77;;;30.70;70.20;;;;;;5071691;28;20177;-65
2023/08/11 09:41:03;;;;;;;2.80;1.25;;;30.90;68.30;;;;;;5091057;28;20172;-64
2023/08/11 09:43:32;;;;;;;2.28;1.55;;;31.00;70.40;;;;;;5089981;28;20183;-65
2023/08/11 09:46:00;;;;;;;3.85;1.83;;;30.60;70.20;;;;;;5084521;28;20183;-65
2023/08/11 09:48:26;;;;;;;3.75;1.55;;;30.60;68.10;;;;;;5096648;28;20309;-65
2023/08/11 09:50:52;;;;;;;2.95;1.60;;;31.00;67.00;;;;;;5084596;28;20785;-65
2023/08/11 09:53:19;;;;;;;3.25;1.42;;;31.10;68.00;;;;;;5083602;28;20180;-65
2023/08/11 09:55:48;;;;;;;3.90;1.85;;;30.60;69.00;;;;;;5090370;28;20199;-65
2023/08/11 09:58:15;;;;;;;1.80;1.00;;;31.00;65.80;;;;;;5090554;28;20172;-65
2023/08/11 10:00:42;;;;;;;2.55;1.20;;;30.70;67.90;;;;;;5084996;28;20180;-65
2023/08/11 10:03:12;;;;;;;2.55;1.42;;;30.50;69.30;;;;;;5082046;28;20204;-64
2023/08/11 10:05:45;;;;;;;4.53;1.67;;;30.40;66.60;;;;;;5097581;28;20218;-65
2023/08/11 10:08:18;;;;;;;2.83;1.25;;;30.60;66.80;;;;;;5089930;28;20195;-65
2023/08/11 10:10:44;;;;;;;3.15;1.25;;;30.40;68.30;;;;;;5092787;28;20179;-65
2023/08/11 10:13:22;;;;;;;3.03;1.58;;;30.30;71.30;;;;;;5076380;28;20212;-65
2023/08/11 10:15:48;;;;;;;3.47;1.35;;;29.90;71.80;;;;;;5086384;28;20180;-64
2023/08/11 10:18:16;;;;;;;3.45;1.55;;;29.90;69.60;;;;;;5078409;28;20214;-64
2023/08/11 10:20:42;;;;;;;5.03;1.50;;;29.60;70.30;;;;;;5077286;28;20222;-64
2023/08/11 10:23:09;;;;;;;1.92;1.02;;;29.50;71.10;;;;;;5076977;28;20188;-64
2023/08/11 10:25:35;;;;;;;2.83;1.58;;;29.00;71.60;;;;;;5077381;28;20202;-64
2023/08/11 10:28:06;;;;;;;2.38;1.17;;;28.90;72.20;;;;;;5082893;28;20210;-64
2023/08/11 10:30:33;;;;;;;3.05;1.13;;;28.60;73.00;;;;;;5097293;28;20195;-64
2023/08/11 10:33:06;;;;;;;3.13;1.45;;;28.50;74.80;;;;;;5084077;28;20316;-64
2023/08/11 10:35:34;;;;;;;2.38;1.45;;;28.60;73.50;;;;;;5092768;28;20180;-64
2023/08/11 10:38:00;;;;;;;4.20;1.70;;;28.60;74.20;;;;;;5089228;28;20553;-64
2023/08/11 10:40:39;;;;;;;1.83;1.10;;;28.40;74.60;;;;;;5077240;28;20250;-64
2023/08/11 10:43:06;;;;;;;3.03;1.40;;;28.20;76.20;;;;;;5076426;28;20199;-64
2023/08/11 10:45:33;;;;;;;2.67;1.20;;;28.40;77.20;;;;;;5079244;28;20798;-64
2023/08/11 10:48:05;;;;;;;12.88;1.98;;;28.40;73.80;;;;;;5087570;28;20184;-64
2023/08/11 10:50:31;;;;;;;2.67;1.17;;;28.50;74.30;;;;;;5093443;28;20188;-64
2023/08/11 10:53:28;;;;;;;2.65;1.08;;;28.40;74.20;;;;;;5083312;28;20204;-65
2023/08/11 10:56:01;;;;;;;2.97;1.65;;;28.30;75.00;;;;;;5053497;28;20204;-64
2023/08/11 10:58:30;;;;;;;2.20;1.20;;;28.40;74.20;;;;;;5086421;28;20189;-64
2023/08/11 11:00:56;;;;;;;2.40;1.10;;;28.60;74.30;;;;;;5083423;28;20201;-64
2023/08/11 11:03:22;;;;;;;2.28;0.90;;;28.60;73.20;;;;;;5088710;28;20239;-64
2023/08/11 11:05:48;;;;;;;2.83;1.33;;;28.70;73.50;;;;;;5083486;28;20542;-64
2023/08/11 11:08:14;;;;;;;3.40;1.48;;;28.80;73.10;;;;;;5086275;28;20580;-64
2023/08/11 11:10:41;;;;;;;3.42;1.38;;;28.80;74.10;;;;;;5088418;28;20630;-64
2023/08/11 11:13:07;;;;;;;7.18;1.25;;;28.70;73.60;;;;;;5072955;28;20204;-64
2023/08/11 11:15:33;;;;;;;2.08;1.05;;;28.90;73.80;;;;;;5086164;28;20219;-64
2023/08/11 11:17:59;;;;;;;3.05;1.35;;;28.90;73.00;;;;;;5088186;28;20180;-64
2023/08/11 11:20:26;;;;;;;5.90;1.60;;;28.90;72.20;;;;;;5073198;28;20638;-64
2023/08/11 11:22:51;;;;;;;1.80;1.00;;;28.80;71.70;;;;;;5073385;28;20275;-64
2023/08/11 11:25:18;;;;;;;2.65;1.25;;;28.70;75.50;;;;;;5072986;28;20723;-64
2023/08/11 11:27:44;;;;;;;1.80;1.10;;;28.80;75.50;;;;;;5075885;28;20181;-64
2023/08/11 11:30:11;;;;;;;2.83;1.38;;;29.00;73.60;;;;;;5082912;28;20181;-64
2023/08/11 11:32:38;;;;;;;2.58;1.42;;;29.30;74.50;;;;;;5076083;28;20206;-64
2023/08/11 11:35:04;;;;;;;2.13;1.15;;;29.50;73.20;;;;;;5077561;28;20172;-64
2023/08/11 11:37:32;;;;;;;2.58;1.23;;;29.30;75.50;;;;;;5078377;28;20176;-64
2023/08/11 11:39:59;;;;;;;2.47;1.30;;;29.00;74.50;;;;;;5089535;28;20182;-64
2023/08/11 11:42:29;;;;;;;2.08;1.23;;;29.40;75.90;;;;;;5081199;28;20172;-65
2023/08/11 11:44:55;;;;;;;3.17;1.20;;;29.30;72.30;;;;;;5081860;28;20180;-64
2023/08/11 11:47:21;;;;;;;1.98;1.08;;;29.40;72.60;;;;;;5077197;28;20229;-64
2023/08/11 11:49:57;;;;;;;3.83;1.25;;;29.50;72.50;;;;;;5092839;28;20223;-64
2023/08/11 11:52:24;;;;;;;3.60;1.52;;;29.70;72.70;;;;;;5080251;28;20293;-64
2023/08/11 11:54:53;;;;;;;4.63;1.42;;;29.80;73.30;;;;;;5081491;28;20168;-64
2023/08/11 11:57:23;;;;;;;2.65;1.75;;;30.20;72.30;;;;;;5080629;28;20168;-64
2023/08/11 11:59:49;;;;;;;3.38;1.40;;;30.20;71.10;;;;;;5084308;28;20505;-64
2023/08/11 12:02:16;;;;;;;2.90;1.20;;;30.20;69.30;;;;;;5078656;28;20184;-64
2023/08/11 12:04:43;;;;;;;2.17;1.20;;;30.00;72.00;;;;;;5078753;28;20191;-64
2023/08/11 12:07:09;;;;;;;3.15;1.30;;;30.20;70.90;;;;;;5076330;28;20225;-64
2023/08/11 12:09:51;;;;;;;3.25;1.10;;;30.20;71.00;;;;;;5084337;28;20630;-64
2023/08/11 12:12:17;;;;;;;2.42;1.30;;;30.50;70.00;;;;;;5084860;28;20235;-65
2023/08/11 12:14:42;;;;;;;2.70;1.38;;;30.20;71.30;;;;;;5081101;28;20277;-64
2023/08/11 12:17:08;;;;;;;3.50;1.48;;;30.00;71.50;;;;;;5089813;28;20337;-65
2023/08/11 12:19:34;;;;;;;2.22;1.38;;;30.30;74.20;;;;;;5078706;28;20187;-64
2023/08/11 12:22:00;;;;;;;2.45;1.30;;;30.60;72.50;;;;;;5082455;28;20180;-64
2023/08/11 12:24:26;;;;;;;2.20;1.25;;;30.80;69.50;;;;;;5085009;28;20530;-64
2023/08/11 12:26:52;;;;;;;3.03;1.55;;;30.70;70.40;;;;;;5072089;28;20184;-64
2023/08/11 12:29:17;;;;;;;3.35;1.38;;;30.60;69.20;;;;;;5084707;28;20191;-64
2023/08/11 12:31:43;;;;;;;2.50;1.30;;;30.40;70.90;;;;;;5071757;28;20211;-64
2023/08/11 12:34:08;;;;;;;3.25;1.45;;;30.60;71.00;;;;;;5080385;28;20191;-64
2023/08/11 12:36:34;;;;;;;3.20;1.75;;;30.80;69.30;;;;;;5070156;28;20263;-64
2023/08/11 12:39:00;;;;;;;2.67;1.30;;;30.80;69.00;;;;;;5078515;28;20218;-64
2023/08/11 12:41:25;;;;;;;3.42;1.30;;;30.80;69.30;;;;;;5085088;28;20605;-64
2023/08/11 12:43:51;;;;;;;15.55;1.83;;;30.50;69.20;;;;;;5078314;28;20184;-64